East Willows Rd (358) Station Data

Red Flag Warning: No
Fire Weather Zone: 250
SDGE Region: Eastern
Lat/Lon: 32.837/-116.682

Observations

Time Wind Speed/Gust Temp(F) RH Fuel Moist Fuel Temp(F) Dewpt(F) Tmax(F) Tmin(F) Accum Precip 10-min Precip SL Press(mb)
3/29 8:00am 107 4 G 7 62° 22% - - 22° 63.8° 51.6° - - -
3/29 7:50am 125 4 G 7 62° 19% - - 19° 63.8° 51.6° - - -
3/29 7:40am 119 5 G 7 60° 21% - - 20° 63.8° 51.6° - - -
3/29 7:30am 115 6 G 7 60° 21% - - 19° 63.8° 51.6° - - -
3/29 7:20am 99 5 G 6 60° 19% - - 18° 63.8° 51.6° - - -
3/29 7:10am 22 3 G 5 60° 19% - - 18° 63.8° 51.6° - - -
3/29 7:00am 25 4 G 6 59° 19% - - 17° 63.8° 51.6° - - -
3/29 6:50am 88 5 G 8 60° 19% - - 17° 63.8° 51.6° - - -
3/29 6:40am 68 4 G 8 59° 19% - - 17° 63.8° 51.6° - - -
3/29 6:30am 98 6 G 8 59° 20% - - 17° 63.8° 51.6° - - -
3/29 6:20am 95 8 G 11 57° 22% - - 18° 63.8° 51.6° - - -
3/29 6:10am 104 8 G 11 57° 22% - - 18° 63.8° 51.6° - - -
3/29 6:00am 85 5 G 10 59° 19% - - 17° 63.8° 51.6° - - -
3/29 5:50am 100 4 G 8 59° 20% - - 17° 63.8° 51.6° - - -
3/29 5:40am 110 5 G 7 59° 19% - - 17° 63.8° 51.6° - - -
3/29 5:30am 117 6 G 8 57° 21% - - 18° 63.8° 51.6° - - -
3/29 5:20am 118 7 G 10 57° 21% - - 18° 63.8° 51.6° - - -
3/29 5:10am 120 6 G 10 58° 20% - - 17° 63.8° 51.6° - - -
3/29 5:00am 121 7 G 10 59° 20% - - 17° 63.8° 51.6° - - -
3/29 4:50am 116 7 G 9 59° 19% - - 17° 63.8° 51.6° - - -
3/29 4:40am 121 6 G 8 59° 19% - - 17° 63.8° 51.6° - - -
3/29 4:30am 119 7 G 8 59° 18% - - 16° 63.8° 51.6° - - -
3/29 4:20am 118 7 G 9 59° 19% - - 17° 63.8° 51.6° - - -
3/29 4:10am 116 6 G 7 59° 19% - - 17° 63.8° 51.6° - - -
3/29 4:00am 125 5 G 7 58° 20% - - 17° 63.8° 51.6° - - -
3/29 3:50am 120 7 G 11 57° 22% - - 18° 63.8° 51.6° - - -
3/29 3:40am 105 7 G 11 59° 19% - - 17° 63.8° 51.6° - - -
3/29 3:30am 107 2 G 7 60° 17% - - 16° 63.8° 51.6° - - -
3/29 3:20am 322 1 G 4 62° 16% - - 15° 63.8° 51.6° - - -
3/29 3:10am 54 2 G 3 62° 16% - - 15° 63.3° 51.6° - - -
3/29 3:00am 73 4 G 6 60° 18% - - 16° 62° 51.6° - - -
3/29 2:50am 98 7 G 10 58° 20% - - 17° 62° 51.6° - - -
3/29 2:40am 118 7 G 11 59° 19% - - 17° 62° 51.6° - - -
3/29 2:30am 162 3 G 6 60° 17% - - 16° 62° 51.6° - - -
3/29 2:20am 302 2 G 7 60° 17% - - 16° 62° 51.6° - - -
3/29 2:10am 201 3 G 7 57° 21% - - 18° 59° 51.6° - - -
3/29 2:00am 157 4 G 6 55° 24% - - 19° 59° 51.6° - - -
3/29 1:50am 166 3 G 8 57° 21% - - 18° 59° 51.6° - - -
3/29 1:40am 212 2 G 5 56° 23% - - 19° 58.7° 51.6° - - -
3/29 1:30am 130 6 G 9 53° 28% - - 21° 55.3° 51.6° - - -
3/29 1:20am 126 9 G 11 53° 30% - - 22° 55.2° 51.6° - - -
3/29 1:10am 121 8 G 11 53° 30% - - 22° 55.2° 51.6° - - -
3/29 1:00am 117 8 G 11 54° 28% - - 22° 55.2° 51.6° - - -
3/29 12:50am 132 6 G 8 54° 29% - - 22° 54.9° 51.6° - - -
3/29 12:40am 127 7 G 10 52° 33% - - 24° 54.8° 51.6° - - -
3/29 12:30am 112 8 G 12 52° 34% - - 25° 54.8° 51.7° - - -
3/29 12:20am 121 8 G 12 53° 33% - - 25° 54.8° 52.6° - - -
3/29 12:10am 120 7 G 9 54° 33% - - 25° 54.8° 52.9° - - -
3/29 12:00am 110 5 G 7 55° 31% - - 25° 68.4° 44.8° - - -
3/28 11:50pm 107 9 G 12 53° 37% - - 28° 68.4° 44.8° - - -
3/28 11:40pm 116 9 G 11 53° 40% - - 29° 68.4° 44.8° - - -
3/28 11:30pm 117 7 G 9 55° 38% - - 30° 68.4° 44.8° - - -
3/28 11:20pm 116 7 G 8 55° 39% - - 31° 68.4° 44.8° - - -
3/28 11:10pm 122 7 G 9 54° 44% - - 33° 68.4° 44.8° - - -
3/28 11:00pm 118 6 G 8 54° 45% - - 34° 68.4° 44.8° - - -
3/28 10:50pm 124 6 G 8 54° 48% - - 35° 68.4° 44.8° - - -
3/28 10:40pm 118 4 G 6 55° 49% - - 36° 68.4° 44.8° - - -
3/28 10:30pm 123 4 G 5 54° 52% - - 37° 68.4° 44.8° - - -
3/28 10:20pm 122 5 G 7 54° 54% - - 38° 68.4° 44.8° - - -
3/28 10:10pm 119 5 G 7 54° 57% - - 39° 68.4° 44.8° - - -
3/28 10:00pm 108 5 G 6 54° 58% - - 40° 68.4° 44.8° - - -
3/28 9:50pm 112 4 G 6 55° 59% - - 41° 68.4° 44.8° - - -
3/28 9:40pm 106 5 G 7 55° 61% - - 41° 68.4° 44.8° - - -
3/28 9:30pm 107 3 G 5 55° 60% - - 42° 68.4° 44.8° - - -
3/28 9:20pm 104 2 G 4 54° 63% - - 42° 68.4° 44.8° - - -
3/28 9:10pm 41 3 G 4 55° 62% - - 42° 68.4° 44.8° - - -
3/28 9:00pm 117 4 G 5 54° 63% - - 42° 68.4° 44.8° - - -
3/28 8:50pm 103 3 G 5 55° 62% - - 42° 68.4° 44.8° - - -
3/28 8:40pm 114 4 G 5 54° 64% - - 42° 68.4° 44.8° - - -
3/28 8:30pm 130 3 G 6 55° 61% - - 42° 68.4° 44.8° - - -
3/28 8:20pm 145 3 G 4 55° 61% - - 42° 68.4° 44.8° - - -
3/28 8:10pm 122 2 G 4 55° 63% - - 42° 68.4° 44.8° - - -
3/28 8:00pm 152 4 G 6 55° 61% - - 42° 68.4° 44.8° - - -
3/28 7:50pm 162 4 G 5 55° 61% - - 42° 68.4° 44.8° - - -
3/28 7:40pm 226 1 G 3 55° 61% - - 42° 68.4° 44.8° - - -
3/28 7:30pm 161 3 G 5 56° 59% - - 42° 68.4° 44.8° - - -
3/28 7:20pm 157 2 G 6 56° 58% - - 42° 68.4° 44.8° - - -
3/28 7:10pm 227 6 G 7 57° 56% - - 41° 68.4° 44.8° - - -
3/28 7:00pm 216 6 G 12 58° 54% - - 41° 68.4° 44.8° - - -
3/28 6:50pm 231 3 G 6 60° 51% - - 41° 68.4° 44.8° - - -
3/28 6:40pm 249 4 G 9 60° 50% - - 42° 68.4° 44.8° - - -
3/28 6:30pm 251 5 G 9 61° 49% - - 42° 68.4° 44.8° - - -
3/28 6:20pm 252 5 G 9 62° 49% - - 43° 68.4° 44.8° - - -
3/28 6:10pm 258 8 G 13 62° 49% - - 43° 68.4° 44.8° - - -
3/28 6:00pm 253 8 G 14 63° 49% - - 43° 68.4° 44.8° - - -
3/28 5:50pm 258 8 G 13 63° 48% - - 43° 68.4° 44.8° - - -
3/28 5:40pm 262 7 G 13 63° 48% - - 43° 68.4° 44.8° - - -
3/28 5:30pm 257 9 G 17 63° 48% - - 43° 68.4° 44.8° - - -
3/28 5:20pm 262 8 G 14 64° 47% - - 44° 68.4° 44.8° - - -
3/28 5:10pm 239 9 G 17 64° 47% - - 44° 68.4° 44.8° - - -
3/28 5:00pm 245 10 G 16 64° 46% - - 43° 68.4° 44.8° - - -
3/28 4:50pm 241 10 G 15 65° 45% - - 43° 68.4° 44.8° - - -
3/28 4:40pm 266 8 G 15 65° 43% - - 42° 68.4° 44.8° - - -
3/28 4:30pm 260 7 G 13 66° 43% - - 42° 68.4° 44.8° - - -
3/28 4:20pm 265 9 G 14 66° 43% - - 43° 68.4° 44.8° - - -
3/28 4:10pm 268 7 G 16 66° 41% - - 41° 68.4° 44.8° - - -
3/28 4:00pm 262 8 G 13 66° 37% - - 39° 68.4° 44.8° - - -
3/28 3:50pm 264 7 G 12 66° 32% - - 36° 68.4° 44.8° - - -
3/28 3:40pm 272 7 G 12 67° 30% - - 35° 68.4° 44.8° - - -
3/28 3:30pm 281 5 G 11 66° 31% - - 35° 68.2° 44.8° - - -
3/28 3:20pm 272 4 G 8 66° 30% - - 34° 67.9° 44.8° - - -
3/28 3:10pm 279 6 G 14 66° 31% - - 34° 67° 44.8° - - -
3/28 3:00pm 242 6 G 13 66° 31% - - 34° 67° 44.8° - - -
3/28 2:50pm 281 4 G 12 65° 32% - - 35° 66.6° 44.8° - - -
3/28 2:40pm 256 5 G 10 65° 34% - - 36° 66.6° 44.8° - - -
3/28 2:30pm 267 6 G 10 65° 35% - - 36° 66.4° 44.8° - - -
3/28 2:20pm 256 6 G 14 65° 35% - - 37° 66.4° 44.8° - - -
3/28 2:10pm 244 8 G 14 65° 34% - - 36° 66.4° 44.8° - - -
3/28 2:00pm 256 8 G 13 65° 30% - - 33° 66.4° 44.8° - - -
3/28 1:50pm 265 6 G 12 66° 31% - - 34° 66.4° 44.8° - - -
3/28 1:40pm 267 6 G 10 65° 31% - - 33° 65.9° 44.8° - - -
3/28 1:30pm 262 6 G 14 65° 31% - - 34° 65.8° 44.8° - - -
3/28 1:20pm 243 5 G 10 65° 30% - - 32° 65.7° 44.8° - - -
3/28 1:10pm 227 6 G 12 64° 30% - - 31° 65° 44.8° - - -
3/28 1:00pm 229 8 G 17 63° 29% - - 31° 65° 44.8° - - -
3/28 12:50pm 239 7 G 15 63° 31% - - 32° 65° 44.8° - - -
3/28 12:40pm 244 7 G 12 63° 28% - - 29° 65° 44.8° - - -
3/28 12:30pm 254 8 G 13 63° 32% - - 33° 65° 44.8° - - -
3/28 12:20pm 261 8 G 13 63° 31% - - 32° 64.4° 44.8° - - -
3/28 12:10pm 254 8 G 13 63° 31% - - 32° 64.4° 44.8° - - -
3/28 12:00pm 231 6 G 12 63° 35% - - 35° 64.4° 44.8° - - -
3/28 11:50am 219 7 G 14 62° 36% - - 35° 63.5° 44.8° - - -
3/28 11:40am 219 10 G 16 61° 34% - - 32° 63.5° 44.8° - - -
3/28 11:30am 256 5 G 11 62° 36% - - 35° 63.5° 44.8° - - -
3/28 11:20am 264 6 G 11 61° 35% - - 33° 62.6° 44.8° - - -
3/28 11:10am 254 9 G 13 62° 34% - - 33° 62.6° 44.8° - - -
3/28 11:00am 252 6 G 11 62° 30% - - 30° 62.6° 44.8° - - -
3/28 10:50am 278 4 G 9 61° 31% - - 30° 62.3° 44.8° - - -
3/28 10:40am 281 5 G 9 61° 31% - - 30° 61.8° 44.8° - - -
3/28 10:30am 249 5 G 9 61° 32% - - 31° 61.7° 44.8° - - -
3/28 10:20am 245 5 G 9 61° 34% - - 32° 61.5° 44.8° - - -
3/28 10:10am 251 5 G 8 60° 33% - - 31° 61.3° 44.8° - - -
3/28 10:00am 229 5 G 10 59° 35% - - 31° 60.9° 44.8° - - -
3/28 9:50am 233 6 G 9 59° 34% - - 31° 60.1° 44.8° - - -
3/28 9:40am 242 4 G 8 59° 33% - - 30° 60.1° 44.8° - - -
3/28 9:30am 250 3 G 6 59° 33% - - 30° 59.7° 44.8° - - -
3/28 9:20am 229 2 G 4 58° 35% - - 31° 59.4° 44.8° - - -
3/28 9:10am 248 1 G 4 58° 39% - - 33° 58.2° 44.8° - - -
3/28 9:00am 243 2 G 5 57° 41% - - 34° 57.5° 44.8° - - -
3/28 8:50am 255 3 G 6 55° 43% - - 33° 56.4° 44.8° - - -
3/28 8:40am 258 3 G 5 54° 43% - - 32° 54.6° 44.8° - - -
3/28 8:30am 249 1 G 2 53° 44% - - 32° 54.1° 44.8° - - -
3/28 8:20am 248 2 G 4 52° 47% - - 32° 52.4° 44.8° - - -
3/28 8:10am 248 1 G 2 51° 47% - - 32° 51.8° 44.8° - - -
3/28 8:00am 253 2 G 5 51° 44% - - 30° 51.8° 44.8° - - -
3/28 7:50am 21 1 G 3 50° 40% - - 27° 51.5° 44.8° - - -
3/28 7:40am 147 2 G 4 49° 40% - - 26° 51° 44.8° - - -
3/28 7:30am 117 4 G 6 50° 39% - - 26° 51° 44.8° - - -
3/28 7:20am 112 4 G 6 49° 39% - - 26° 51° 44.8° - - -
3/28 7:10am 108 3 G 6 50° 38% - - 25° 51° 44.8° - - -
3/28 7:00am 66 2 G 5 49° 39% - - 25° 51° 44.8° - - -
3/28 6:50am 12 3 G 5 49° 40% - - 26° 51° 44.8° - - -
3/28 6:40am 174 3 G 5 49° 38% - - 25° 51° 44.8° - - -
3/28 6:30am 148 5 G 6 50° 38% - - 25° 51° 44.8° - - -
3/28 6:20am 180 4 G 7 49° 41% - - 26° 51° 44.8° - - -
3/28 6:10am 199 6 G 10 50° 42% - - 27° 51° 44.8° - - -
3/28 6:00am 144 4 G 6 49° 42% - - 27° 50.7° 44.8° - - -